sensor_id;sensor_type;location;lat;lon;timestamp;temperature;humidity
13713;DHT22;6928;50.546;7.120;2023-08-12T00:00:11;22.84;87.45
13713;DHT22;6928;50.546;7.120;2023-08-12T00:02:42;22.70;88.51
13713;DHT22;6928;50.546;7.120;2023-08-12T00:05:11;22.60;88.47
13713;DHT22;6928;50.546;7.120;2023-08-12T00:07:40;22.66;88.56
13713;DHT22;6928;50.546;7.120;2023-08-12T00:10:09;22.59;88.74
13713;DHT22;6928;50.546;7.120;2023-08-12T00:12:37;22.52;89.09
13713;DHT22;6928;50.546;7.120;2023-08-12T00:15:08;22.57;89.51
13713;DHT22;6928;50.546;7.120;2023-08-12T00:17:36;22.56;88.75
13713;DHT22;6928;50.546;7.120;2023-08-12T00:20:04;22.55;88.96
13713;DHT22;6928;50.546;7.120;2023-08-12T00:22:32;22.49;89.12
13713;DHT22;6928;50.546;7.120;2023-08-12T00:24:59;22.52;89.66
13713;DHT22;6928;50.546;7.120;2023-08-12T00:27:26;22.52;88.97
13713;DHT22;6928;50.546;7.120;2023-08-12T00:29:53;22.50;89.44
13713;DHT22;6928;50.546;7.120;2023-08-12T00:32:21;22.42;89.81
13713;DHT22;6928;50.546;7.120;2023-08-12T00:34:48;22.26;90.47
13713;DHT22;6928;50.546;7.120;2023-08-12T00:37:15;22.23;90.38
13713;DHT22;6928;50.546;7.120;2023-08-12T00:39:42;22.36;89.72
13713;DHT22;6928;50.546;7.120;2023-08-12T00:42:09;22.35;89.32
13713;DHT22;6928;50.546;7.120;2023-08-12T00:44:36;22.33;89.53
13713;DHT22;6928;50.546;7.120;2023-08-12T00:47:03;22.39;89.09
13713;DHT22;6928;50.546;7.120;2023-08-12T00:49:32;22.37;88.88
13713;DHT22;6928;50.546;7.120;2023-08-12T00:52:00;22.36;90.14
13713;DHT22;6928;50.546;7.120;2023-08-12T00:54:28;22.16;90.63
13713;DHT22;6928;50.546;7.120;2023-08-12T00:56:55;22.32;89.83
13713;DHT22;6928;50.546;7.120;2023-08-12T00:59:22;22.35;89.80
13713;DHT22;6928;50.546;7.120;2023-08-12T01:01:49;22.30;89.87
13713;DHT22;6928;50.546;7.120;2023-08-12T01:04:16;22.26;90.33
13713;DHT22;6928;50.546;7.120;2023-08-12T01:07:27;22.22;90.19
13713;DHT22;6928;50.546;7.120;2023-08-12T01:09:53;22.19;90.55
13713;DHT22;6928;50.546;7.120;2023-08-12T01:12:28;22.15;90.55
13713;DHT22;6928;50.546;7.120;2023-08-12T01:15:03;22.11;89.84
13713;DHT22;6928;50.546;7.120;2023-08-12T01:17:31;22.16;90.15
13713;DHT22;6928;50.546;7.120;2023-08-12T01:20:00;22.06;90.39
13713;DHT22;6928;50.546;7.120;2023-08-12T01:22:30;21.74;91.18
13713;DHT22;6928;50.546;7.120;2023-08-12T01:25:00;21.88;91.01
13713;DHT22;6928;50.546;7.120;2023-08-12T01:27:27;21.81;91.01
13713;DHT22;6928;50.546;7.120;2023-08-12T01:29:53;21.77;91.85
13713;DHT22;6928;50.546;7.120;2023-08-12T01:32:27;21.84;91.06
13713;DHT22;6928;50.546;7.120;2023-08-12T01:35:03;21.73;91.59
13713;DHT22;6928;50.546;7.120;2023-08-12T01:37:34;21.73;91.00
13713;DHT22;6928;50.546;7.120;2023-08-12T01:40:05;21.61;91.85
13713;DHT22;6928;50.546;7.120;2023-08-12T01:42:35;21.67;92.09
13713;DHT22;6928;50.546;7.120;2023-08-12T01:45:02;21.44;92.65
13713;DHT22;6928;50.546;7.120;2023-08-12T01:47:29;21.36;92.96
13713;DHT22;6928;50.546;7.120;2023-08-12T01:49:57;21.54;92.49
13713;DHT22;6928;50.546;7.120;2023-08-12T01:52:24;21.58;91.93
13713;DHT22;6928;50.546;7.120;2023-08-12T01:54:51;21.49;91.71
13713;DHT22;6928;50.546;7.120;2023-08-12T01:57:20;21.65;91.38
13713;DHT22;6928;50.546;7.120;2023-08-12T01:59:46;21.77;92.06
13713;DHT22;6928;50.546;7.120;2023-08-12T02:02:13;21.68;91.34
13713;DHT22;6928;50.546;7.120;2023-08-12T02:04:57;21.71;91.35
13713;DHT22;6928;50.546;7.120;2023-08-12T02:07:24;21.70;91.13
13713;DHT22;6928;50.546;7.120;2023-08-12T02:09:53;21.71;91.49
13713;DHT22;6928;50.546;7.120;2023-08-12T02:12:23;21.55;91.49
13713;DHT22;6928;50.546;7.120;2023-08-12T02:14:50;21.47;92.51
13713;DHT22;6928;50.546;7.120;2023-08-12T02:17:16;21.64;91.36
13713;DHT22;6928;50.546;7.120;2023-08-12T02:19:43;21.47;92.55
13713;DHT22;6928;50.546;7.120;2023-08-12T02:22:10;21.43;92.58
13713;DHT22;6928;50.546;7.120;2023-08-12T02:24:37;21.60;91.81
13713;DHT22;6928;50.546;7.120;2023-08-12T02:27:08;21.49;91.74
13713;DHT22;6928;50.546;7.120;2023-08-12T02:29:41;21.33;92.29
13713;DHT22;6928;50.546;7.120;2023-08-12T02:32:07;21.39;92.39
13713;DHT22;6928;50.546;7.120;2023-08-12T02:34:34;21.57;92.53
13713;DHT22;6928;50.546;7.120;2023-08-12T02:37:01;21.67;92.56
13713;DHT22;6928;50.546;7.120;2023-08-12T02:39:28;21.36;93.15
13713;DHT22;6928;50.546;7.120;2023-08-12T02:41:55;21.37;93.48
13713;DHT22;6928;50.546;7.120;2023-08-12T02:44:22;21.44;93.23
13713;DHT22;6928;50.546;7.120;2023-08-12T02:46:50;21.54;92.77
13713;DHT22;6928;50.546;7.120;2023-08-12T02:49:17;21.51;93.09
13713;DHT22;6928;50.546;7.120;2023-08-12T02:51:44;21.47;92.41
13713;DHT22;6928;50.546;7.120;2023-08-12T02:54:10;21.44;92.31
13713;DHT22;6928;50.546;7.120;2023-08-12T02:56:37;21.49;92.24
13713;DHT22;6928;50.546;7.120;2023-08-12T02:59:04;21.29;92.05
13713;DHT22;6928;50.546;7.120;2023-08-12T03:02:07;21.24;92.02
13713;DHT22;6928;50.546;7.120;2023-08-12T03:04:53;21.29;92.22
13713;DHT22;6928;50.546;7.120;2023-08-12T03:07:20;21.24;92.12
13713;DHT22;6928;50.546;7.120;2023-08-12T03:12:58;21.15;92.49
13713;DHT22;6928;50.546;7.120;2023-08-12T03:15:46;21.16;92.31
13713;DHT22;6928;50.546;7.120;2023-08-12T03:18:30;21.20;92.13
13713;DHT22;6928;50.546;7.120;2023-08-12T03:20:57;21.15;92.23
13713;DHT22;6928;50.546;7.120;2023-08-12T03:23:24;21.20;92.39
13713;DHT22;6928;50.546;7.120;2023-08-12T03:26:33;21.29;92.52
13713;DHT22;6928;50.546;7.120;2023-08-12T03:29:03;21.23;92.17
13713;DHT22;6928;50.546;7.120;2023-08-12T03:31:31;21.15;92.12
13713;DHT22;6928;50.546;7.120;2023-08-12T03:34:02;21.15;92.06
13713;DHT22;6928;50.546;7.120;2023-08-12T03:36:29;21.07;93.17
13713;DHT22;6928;50.546;7.120;2023-08-12T03:38:56;20.92;93.00
13713;DHT22;6928;50.546;7.120;2023-08-12T03:41:23;20.85;93.34
13713;DHT22;6928;50.546;7.120;2023-08-12T03:43:50;20.91;93.18
13713;DHT22;6928;50.546;7.120;2023-08-12T03:46:17;21.06;92.61
13713;DHT22;6928;50.546;7.120;2023-08-12T03:48:44;21.12;92.46
13713;DHT22;6928;50.546;7.120;2023-08-12T03:51:15;21.06;92.50
13713;DHT22;6928;50.546;7.120;2023-08-12T03:53:43;21.15;92.17
13713;DHT22;6928;50.546;7.120;2023-08-12T03:56:09;21.09;92.22
13713;DHT22;6928;50.546;7.120;2023-08-12T03:58:40;20.96;92.72
13713;DHT22;6928;50.546;7.120;2023-08-12T04:01:07;20.96;92.79
13713;DHT22;6928;50.546;7.120;2023-08-12T04:03:34;20.98;92.39
13713;DHT22;6928;50.546;7.120;2023-08-12T04:06:00;20.82;92.93
13713;DHT22;6928;50.546;7.120;2023-08-12T04:08:30;20.96;92.47
13713;DHT22;6928;50.546;7.120;2023-08-12T04:10:57;21.07;92.10
13713;DHT22;6928;50.546;7.120;2023-08-12T04:13:24;21.09;92.07
13713;DHT22;6928;50.546;7.120;2023-08-12T04:15:51;21.07;91.92
13713;DHT22;6928;50.546;7.120;2023-08-12T04:18:19;21.02;91.94
13713;DHT22;6928;50.546;7.120;2023-08-12T04:20:51;20.98;92.17
13713;DHT22;6928;50.546;7.120;2023-08-12T04:23:35;20.98;92.18
13713;DHT22;6928;50.546;7.120;2023-08-12T04:26:02;20.84;92.92
13713;DHT22;6928;50.546;7.120;2023-08-12T04:28:29;20.88;93.35
13713;DHT22;6928;50.546;7.120;2023-08-12T04:30:55;20.78;93.43
13713;DHT22;6928;50.546;7.120;2023-08-12T04:33:23;20.71;93.50
13713;DHT22;6928;50.546;7.120;2023-08-12T04:35:52;20.72;93.14
13713;DHT22;6928;50.546;7.120;2023-08-12T04:38:19;20.72;93.07
13713;DHT22;6928;50.546;7.120;2023-08-12T04:40:47;20.67;93.70
13713;DHT22;6928;50.546;7.120;2023-08-12T04:43:14;20.65;93.72
13713;DHT22;6928;50.546;7.120;2023-08-12T04:45:45;20.52;93.85
13713;DHT22;6928;50.546;7.120;2023-08-12T04:48:13;20.55;94.30
13713;DHT22;6928;50.546;7.120;2023-08-12T04:50:39;20.57;94.28
13713;DHT22;6928;50.546;7.120;2023-08-12T04:53:06;20.59;94.00
13713;DHT22;6928;50.546;7.120;2023-08-12T04:55:34;20.68;93.38
13713;DHT22;6928;50.546;7.120;2023-08-12T04:58:03;20.55;92.89
13713;DHT22;6928;50.546;7.120;2023-08-12T05:00:30;20.51;92.26
13713;DHT22;6928;50.546;7.120;2023-08-12T05:02:57;20.49;92.88
13713;DHT22;6928;50.546;7.120;2023-08-12T05:05:25;20.41;92.97
13713;DHT22;6928;50.546;7.120;2023-08-12T05:07:52;20.34;93.00
13713;DHT22;6928;50.546;7.120;2023-08-12T05:10:19;20.45;93.05
13713;DHT22;6928;50.546;7.120;2023-08-12T05:12:46;20.43;92.75
13713;DHT22;6928;50.546;7.120;2023-08-12T05:15:17;20.59;92.18
13713;DHT22;6928;50.546;7.120;2023-08-12T05:17:43;20.43;92.28
13713;DHT22;6928;50.546;7.120;2023-08-12T05:20:11;20.51;92.43
13713;DHT22;6928;50.546;7.120;2023-08-12T05:22:38;20.69;92.15
13713;DHT22;6928;50.546;7.120;2023-08-12T05:25:05;20.64;91.92
13713;DHT22;6928;50.546;7.120;2023-08-12T05:27:32;20.72;91.62
13713;DHT22;6928;50.546;7.120;2023-08-12T05:29:59;20.71;91.96
13713;DHT22;6928;50.546;7.120;2023-08-12T05:32:27;20.86;91.34
13713;DHT22;6928;50.546;7.120;2023-08-12T05:34:55;20.74;91.26
13713;DHT22;6928;50.546;7.120;2023-08-12T05:37:22;20.72;91.25
13713;DHT22;6928;50.546;7.120;2023-08-12T05:39:48;20.57;92.00
13713;DHT22;6928;50.546;7.120;2023-08-12T05:42:15;20.68;91.78
13713;DHT22;6928;50.546;7.120;2023-08-12T05:44:42;20.58;91.46
13713;DHT22;6928;50.546;7.120;2023-08-12T05:47:09;20.78;91.02
13713;DHT22;6928;50.546;7.120;2023-08-12T05:49:37;20.47;91.96
13713;DHT22;6928;50.546;7.120;2023-08-12T05:52:04;20.55;91.39
13713;DHT22;6928;50.546;7.120;2023-08-12T05:54:31;20.72;90.83
13713;DHT22;6928;50.546;7.120;2023-08-12T05:56:59;20.69;90.95
13713;DHT22;6928;50.546;7.120;2023-08-12T05:59:26;20.58;92.09
13713;DHT22;6928;50.546;7.120;2023-08-12T06:01:53;20.67;91.95
13713;DHT22;6928;50.546;7.120;2023-08-12T06:04:20;20.54;92.36
13713;DHT22;6928;50.546;7.120;2023-08-12T06:06:48;20.45;92.60
13713;DHT22;6928;50.546;7.120;2023-08-12T06:09:15;20.13;92.17
13713;DHT22;6928;50.546;7.120;2023-08-12T06:11:42;19.97;92.54
13713;DHT22;6928;50.546;7.120;2023-08-12T06:14:09;19.99;92.17
13713;DHT22;6928;50.546;7.120;2023-08-12T06:16:35;19.95;91.05
13713;DHT22;6928;50.546;7.120;2023-08-12T06:19:03;19.95;91.15
13713;DHT22;6928;50.546;7.120;2023-08-12T06:21:29;19.97;92.12
13713;DHT22;6928;50.546;7.120;2023-08-12T06:23:57;19.79;92.85
13713;DHT22;6928;50.546;7.120;2023-08-12T06:26:24;19.58;92.22
13713;DHT22;6928;50.546;7.120;2023-08-12T06:28:51;19.62;90.40
13713;DHT22;6928;50.546;7.120;2023-08-12T06:31:18;19.70;90.49
13713;DHT22;6928;50.546;7.120;2023-08-12T06:33:44;19.82;91.17
13713;DHT22;6928;50.546;7.120;2023-08-12T06:36:11;19.78;91.36
13713;DHT22;6928;50.546;7.120;2023-08-12T06:38:38;19.72;91.61
13713;DHT22;6928;50.546;7.120;2023-08-12T06:41:06;19.75;92.28
13713;DHT22;6928;50.546;7.120;2023-08-12T06:43:33;19.79;91.51
13713;DHT22;6928;50.546;7.120;2023-08-12T06:46:00;19.82;92.27
13713;DHT22;6928;50.546;7.120;2023-08-12T06:48:27;19.76;92.49
13713;DHT22;6928;50.546;7.120;2023-08-12T06:50:54;19.68;93.09
13713;DHT22;6928;50.546;7.120;2023-08-12T06:53:21;19.97;92.96
13713;DHT22;6928;50.546;7.120;2023-08-12T06:55:48;20.09;92.73
13713;DHT22;6928;50.546;7.120;2023-08-12T06:58:16;20.06;92.30
13713;DHT22;6928;50.546;7.120;2023-08-12T07:00:43;20.18;92.27
13713;DHT22;6928;50.546;7.120;2023-08-12T07:03:10;20.14;91.96
13713;DHT22;6928;50.546;7.120;2023-08-12T07:05:36;20.10;92.32
13713;DHT22;6928;50.546;7.120;2023-08-12T07:08:04;20.09;92.31
13713;DHT22;6928;50.546;7.120;2023-08-12T07:10:31;20.14;92.30
13713;DHT22;6928;50.546;7.120;2023-08-12T07:12:58;20.16;92.18
13713;DHT22;6928;50.546;7.120;2023-08-12T07:15:26;20.17;91.80
13713;DHT22;6928;50.546;7.120;2023-08-12T07:17:53;20.26;91.72
13713;DHT22;6928;50.546;7.120;2023-08-12T07:20:19;20.23;91.63
13713;DHT22;6928;50.546;7.120;2023-08-12T07:22:46;20.30;91.55
13713;DHT22;6928;50.546;7.120;2023-08-12T07:25:13;20.34;91.68
13713;DHT22;6928;50.546;7.120;2023-08-12T07:27:40;20.36;91.63
13713;DHT22;6928;50.546;7.120;2023-08-12T07:30:08;20.44;91.91
13713;DHT22;6928;50.546;7.120;2023-08-12T07:32:38;20.38;91.59
13713;DHT22;6928;50.546;7.120;2023-08-12T07:35:05;20.44;91.79
13713;DHT22;6928;50.546;7.120;2023-08-12T07:37:35;20.27;90.91
13713;DHT22;6928;50.546;7.120;2023-08-12T07:40:02;20.33;90.78
13713;DHT22;6928;50.546;7.120;2023-08-12T07:42:29;20.41;91.23
13713;DHT22;6928;50.546;7.120;2023-08-12T07:44:56;20.64;91.63
13713;DHT22;6928;50.546;7.120;2023-08-12T07:47:23;20.55;91.13
13713;DHT22;6928;50.546;7.120;2023-08-12T07:49:54;20.74;91.15
13713;DHT22;6928;50.546;7.120;2023-08-12T07:52:21;20.59;90.77
13713;DHT22;6928;50.546;7.120;2023-08-12T07:54:48;20.74;90.96
13713;DHT22;6928;50.546;7.120;2023-08-12T07:57:15;20.78;91.19
13713;DHT22;6928;50.546;7.120;2023-08-12T07:59:41;20.81;92.10
13713;DHT22;6928;50.546;7.120;2023-08-12T08:02:08;20.92;92.14
13713;DHT22;6928;50.546;7.120;2023-08-12T08:04:36;20.82;92.14
13713;DHT22;6928;50.546;7.120;2023-08-12T08:07:04;20.86;92.37
13713;DHT22;6928;50.546;7.120;2023-08-12T08:09:31;20.82;92.15
13713;DHT22;6928;50.546;7.120;2023-08-12T08:11:59;20.85;92.11
13713;DHT22;6928;50.546;7.120;2023-08-12T08:14:26;20.95;92.28
13713;DHT22;6928;50.546;7.120;2023-08-12T08:16:54;20.95;91.69
13713;DHT22;6928;50.546;7.120;2023-08-12T08:19:21;20.98;92.38
13713;DHT22;6928;50.546;7.120;2023-08-12T08:21:48;21.00;91.74
13713;DHT22;6928;50.546;7.120;2023-08-12T08:24:17;21.06;92.24
13713;DHT22;6928;50.546;7.120;2023-08-12T08:26:43;20.96;91.70
13713;DHT22;6928;50.546;7.120;2023-08-12T08:29:11;20.94;91.94
13713;DHT22;6928;50.546;7.120;2023-08-12T08:31:38;21.05;92.00
13713;DHT22;6928;50.546;7.120;2023-08-12T08:34:06;21.17;91.88
13713;DHT22;6928;50.546;7.120;2023-08-12T08:36:33;21.19;91.45
13713;DHT22;6928;50.546;7.120;2023-08-12T08:39:00;21.26;91.36
13713;DHT22;6928;50.546;7.120;2023-08-12T08:41:31;21.39;91.51
13713;DHT22;6928;50.546;7.120;2023-08-12T08:44:02;21.34;90.99
13713;DHT22;6928;50.546;7.120;2023-08-12T08:46:30;21.33;90.68
13713;DHT22;6928;50.546;7.120;2023-08-12T08:48:59;21.30;90.40
13713;DHT22;6928;50.546;7.120;2023-08-12T08:51:28;21.29;90.00
13713;DHT22;6928;50.546;7.120;2023-08-12T08:53:57;21.44;90.21
13713;DHT22;6928;50.546;7.120;2023-08-12T08:56:24;21.43;89.98
13713;DHT22;6928;50.546;7.120;2023-08-12T08:58:52;21.32;90.31
13713;DHT22;6928;50.546;7.120;2023-08-12T09:01:20;21.51;90.31
13713;DHT22;6928;50.546;7.120;2023-08-12T09:03:51;21.55;90.55
13713;DHT22;6928;50.546;7.120;2023-08-12T09:06:20;21.58;90.48
13713;DHT22;6928;50.546;7.120;2023-08-12T09:08:49;21.54;89.93
13713;DHT22;6928;50.546;7.120;2023-08-12T09:11:19;21.60;89.69
13713;DHT22;6928;50.546;7.120;2023-08-12T09:13:47;21.77;90.26
13713;DHT22;6928;50.546;7.120;2023-08-12T09:16:15;21.81;89.98
13713;DHT22;6928;50.546;7.120;2023-08-12T09:18:43;21.78;89.73
13713;DHT22;6928;50.546;7.120;2023-08-12T09:21:10;21.91;89.52
13713;DHT22;6928;50.546;7.120;2023-08-12T09:23:39;21.90;89.14
13713;DHT22;6928;50.546;7.120;2023-08-12T09:26:17;22.00;88.79
13713;DHT22;6928;50.546;7.120;2023-08-12T09:28:44;22.04;88.25
13713;DHT22;6928;50.546;7.120;2023-08-12T09:31:24;22.09;88.02
13713;DHT22;6928;50.546;7.120;2023-08-12T09:33:52;22.13;87.82
13713;DHT22;6928;50.546;7.120;2023-08-12T09:36:21;22.15;87.51
13713;DHT22;6928;50.546;7.120;2023-08-12T09:38:50;22.30;87.93
13713;DHT22;6928;50.546;7.120;2023-08-12T09:41:18;22.30;87.71
13713;DHT22;6928;50.546;7.120;2023-08-12T09:43:44;22.25;88.12
13713;DHT22;6928;50.546;7.120;2023-08-12T09:46:13;22.05;88.05
13713;DHT22;6928;50.546;7.120;2023-08-12T09:48:42;22.21;88.04
13713;DHT22;6928;50.546;7.120;2023-08-12T09:51:09;22.16;87.29
13713;DHT22;6928;50.546;7.120;2023-08-12T09:53:36;22.16;88.17
13713;DHT22;6928;50.546;7.120;2023-08-12T09:56:07;22.23;87.99
13713;DHT22;6928;50.546;7.120;2023-08-12T09:58:36;22.11;87.82
13713;DHT22;6928;50.546;7.120;2023-08-12T10:01:03;22.15;87.91
13713;DHT22;6928;50.546;7.120;2023-08-12T10:03:33;22.35;88.46
13713;DHT22;6928;50.546;7.120;2023-08-12T10:06:02;22.18;87.96
13713;DHT22;6928;50.546;7.120;2023-08-12T10:08:29;22.26;87.88
13713;DHT22;6928;50.546;7.120;2023-08-12T10:10:56;22.30;87.68
13713;DHT22;6928;50.546;7.120;2023-08-12T10:13:24;22.36;87.76
13713;DHT22;6928;50.546;7.120;2023-08-12T10:15:50;22.29;87.34
13713;DHT22;6928;50.546;7.120;2023-08-12T10:18:18;22.33;87.17
13713;DHT22;6928;50.546;7.120;2023-08-12T10:20:47;22.47;87.73
13713;DHT22;6928;50.546;7.120;2023-08-12T10:23:17;22.57;86.86
13713;DHT22;6928;50.546;7.120;2023-08-12T10:25:44;22.43;86.94
13713;DHT22;6928;50.546;7.120;2023-08-12T10:28:11;22.50;86.56
13713;DHT22;6928;50.546;7.120;2023-08-12T10:30:40;22.56;87.40
13713;DHT22;6928;50.546;7.120;2023-08-12T10:33:08;22.29;87.07
13713;DHT22;6928;50.546;7.120;2023-08-12T10:35:43;22.39;86.78
13713;DHT22;6928;50.546;7.120;2023-08-12T10:38:13;22.39;86.17
13713;DHT22;6928;50.546;7.120;2023-08-12T10:40:41;22.42;86.21
13713;DHT22;6928;50.546;7.120;2023-08-12T10:43:08;22.55;86.77
13713;DHT22;6928;50.546;7.120;2023-08-12T10:45:45;22.73;86.58
13713;DHT22;6928;50.546;7.120;2023-08-12T10:48:22;22.81;86.01
13713;DHT22;6928;50.546;7.120;2023-08-12T10:50:53;22.62;85.22
13713;DHT22;6928;50.546;7.120;2023-08-12T10:53:25;22.87;85.42
13713;DHT22;6928;50.546;7.120;2023-08-12T10:55:58;23.10;83.52
13713;DHT22;6928;50.546;7.120;2023-08-12T10:58:27;22.91;83.02
13713;DHT22;6928;50.546;7.120;2023-08-12T11:00:55;23.02;83.57
13713;DHT22;6928;50.546;7.120;2023-08-12T11:03:22;23.10;82.55
13713;DHT22;6928;50.546;7.120;2023-08-12T11:05:49;23.02;81.50
13713;DHT22;6928;50.546;7.120;2023-08-12T11:08:24;23.12;82.53
13713;DHT22;6928;50.546;7.120;2023-08-12T11:10:54;23.14;81.66
13713;DHT22;6928;50.546;7.120;2023-08-12T11:13:27;23.28;82.25
13713;DHT22;6928;50.546;7.120;2023-08-12T11:16:06;23.38;80.77
13713;DHT22;6928;50.546;7.120;2023-08-12T11:18:34;23.20;81.64
13713;DHT22;6928;50.546;7.120;2023-08-12T11:21:01;23.29;80.05
13713;DHT22;6928;50.546;7.120;2023-08-12T11:23:29;23.21;81.46
13713;DHT22;6928;50.546;7.120;2023-08-12T11:25:58;23.32;80.66
13713;DHT22;6928;50.546;7.120;2023-08-12T11:28:26;23.38;81.29
13713;DHT22;6928;50.546;7.120;2023-08-12T11:30:54;23.37;79.80
13713;DHT22;6928;50.546;7.120;2023-08-12T11:33:23;23.38;81.36
13713;DHT22;6928;50.546;7.120;2023-08-12T11:35:50;23.45;81.19
13713;DHT22;6928;50.546;7.120;2023-08-12T11:38:18;23.53;80.49
13713;DHT22;6928;50.546;7.120;2023-08-12T11:40:45;23.60;80.01
13713;DHT22;6928;50.546;7.120;2023-08-12T11:43:12;23.49;80.26
13713;DHT22;6928;50.546;7.120;2023-08-12T11:45:41;23.37;81.10
13713;DHT22;6928;50.546;7.120;2023-08-12T11:48:09;23.50;81.25
13713;DHT22;6928;50.546;7.120;2023-08-12T11:50:36;23.49;80.34
13713;DHT22;6928;50.546;7.120;2023-08-12T11:53:03;23.73;79.62
13713;DHT22;6928;50.546;7.120;2023-08-12T11:55:30;23.80;79.30
13713;DHT22;6928;50.546;7.120;2023-08-12T11:57:58;24.07;79.04
13713;DHT22;6928;50.546;7.120;2023-08-12T12:00:25;24.24;76.98
13713;DHT22;6928;50.546;7.120;2023-08-12T12:02:55;24.36;77.85
13713;DHT22;6928;50.546;7.120;2023-08-12T12:05:26;24.01;78.21
13713;DHT22;6928;50.546;7.120;2023-08-12T12:07:55;24.18;78.07
13713;DHT22;6928;50.546;7.120;2023-08-12T12:10:28;24.58;77.01
13713;DHT22;6928;50.546;7.120;2023-08-12T12:12:56;24.78;76.73
13713;DHT22;6928;50.546;7.120;2023-08-12T12:15:28;25.07;76.04
13713;DHT22;6928;50.546;7.120;2023-08-12T12:18:03;25.00;74.58
13713;DHT22;6928;50.546;7.120;2023-08-12T12:20:35;24.95;75.90
13713;DHT22;6928;50.546;7.120;2023-08-12T12:23:06;25.17;76.05
13713;DHT22;6928;50.546;7.120;2023-08-12T12:25:33;25.53;73.94
13713;DHT22;6928;50.546;7.120;2023-08-12T12:28:00;25.05;74.86
13713;DHT22;6928;50.546;7.120;2023-08-12T12:30:27;25.31;74.16
13713;DHT22;6928;50.546;7.120;2023-08-12T12:32:54;25.70;74.47
13713;DHT22;6928;50.546;7.120;2023-08-12T12:35:22;25.56;74.72
13713;DHT22;6928;50.546;7.120;2023-08-12T12:37:49;25.12;74.50
13713;DHT22;6928;50.546;7.120;2023-08-12T12:40:16;25.19;75.44
13713;DHT22;6928;50.546;7.120;2023-08-12T12:42:43;25.16;75.38
13713;DHT22;6928;50.546;7.120;2023-08-12T12:45:10;25.40;74.91
13713;DHT22;6928;50.546;7.120;2023-08-12T12:47:37;25.84;73.46
13713;DHT22;6928;50.546;7.120;2023-08-12T12:50:05;25.36;73.04
13713;DHT22;6928;50.546;7.120;2023-08-12T12:52:33;25.67;73.54
13713;DHT22;6928;50.546;7.120;2023-08-12T12:55:00;25.65;72.88
13713;DHT22;6928;50.546;7.120;2023-08-12T12:57:30;25.75;73.09
13713;DHT22;6928;50.546;7.120;2023-08-12T12:59:56;25.85;72.82
13713;DHT22;6928;50.546;7.120;2023-08-12T13:02:26;25.65;73.27
13713;DHT22;6928;50.546;7.120;2023-08-12T13:04:58;25.44;73.53
13713;DHT22;6928;50.546;7.120;2023-08-12T13:07:26;25.17;73.34
13713;DHT22;6928;50.546;7.120;2023-08-12T13:09:54;24.99;73.98
13713;DHT22;6928;50.546;7.120;2023-08-12T13:12:21;24.95;73.50
13713;DHT22;6928;50.546;7.120;2023-08-12T13:14:47;25.06;73.18
13713;DHT22;6928;50.546;7.120;2023-08-12T13:17:15;25.34;73.92
13713;DHT22;6928;50.546;7.120;2023-08-12T13:19:42;24.95;73.46
13713;DHT22;6928;50.546;7.120;2023-08-12T13:22:08;25.12;73.63
13713;DHT22;6928;50.546;7.120;2023-08-12T13:24:36;25.05;73.77
13713;DHT22;6928;50.546;7.120;2023-08-12T13:27:04;24.90;74.08
13713;DHT22;6928;50.546;7.120;2023-08-12T13:29:32;25.00;74.51
13713;DHT22;6928;50.546;7.120;2023-08-12T13:31:58;25.20;73.84
13713;DHT22;6928;50.546;7.120;2023-08-12T13:34:25;25.67;73.34
13713;DHT22;6928;50.546;7.120;2023-08-12T13:36:52;25.77;71.37
13713;DHT22;6928;50.546;7.120;2023-08-12T13:39:18;25.92;71.38
13713;DHT22;6928;50.546;7.120;2023-08-12T13:41:47;26.02;71.16
13713;DHT22;6928;50.546;7.120;2023-08-12T13:44:15;26.01;71.60
13713;DHT22;6928;50.546;7.120;2023-08-12T13:46:42;26.08;70.57
13713;DHT22;6928;50.546;7.120;2023-08-12T13:49:09;25.92;70.07
13713;DHT22;6928;50.546;7.120;2023-08-12T13:51:37;25.92;69.70
13713;DHT22;6928;50.546;7.120;2023-08-12T13:54:04;25.80;70.71
13713;DHT22;6928;50.546;7.120;2023-08-12T13:56:31;25.71;70.71
13713;DHT22;6928;50.546;7.120;2023-08-12T13:58:58;26.05;70.80
13713;DHT22;6928;50.546;7.120;2023-08-12T14:01:26;26.60;69.78
13713;DHT22;6928;50.546;7.120;2023-08-12T14:03:53;26.70;68.39
13713;DHT22;6928;50.546;7.120;2023-08-12T14:06:19;26.22;68.91
13713;DHT22;6928;50.546;7.120;2023-08-12T14:08:46;26.09;70.18
13713;DHT22;6928;50.546;7.120;2023-08-12T14:11:13;26.01;69.79
13713;DHT22;6928;50.546;7.120;2023-08-12T14:13:40;26.05;70.37
13713;DHT22;6928;50.546;7.120;2023-08-12T14:16:06;26.26;69.47
13713;DHT22;6928;50.546;7.120;2023-08-12T14:18:34;26.40;69.21
13713;DHT22;6928;50.546;7.120;2023-08-12T14:21:01;26.81;68.26
13713;DHT22;6928;50.546;7.120;2023-08-12T14:23:28;26.67;68.09
13713;DHT22;6928;50.546;7.120;2023-08-12T14:25:55;26.60;68.50
13713;DHT22;6928;50.546;7.120;2023-08-12T14:28:22;26.47;67.74
13713;DHT22;6928;50.546;7.120;2023-08-12T14:30:49;26.37;68.29
13713;DHT22;6928;50.546;7.120;2023-08-12T14:33:16;26.61;68.77
13713;DHT22;6928;50.546;7.120;2023-08-12T14:35:44;26.33;68.04
13713;DHT22;6928;50.546;7.120;2023-08-12T14:38:11;26.04;68.42
13713;DHT22;6928;50.546;7.120;2023-08-12T14:40:38;26.02;68.10
13713;DHT22;6928;50.546;7.120;2023-08-12T14:43:04;25.85;68.83
13713;DHT22;6928;50.546;7.120;2023-08-12T14:45:31;26.26;67.91
13713;DHT22;6928;50.546;7.120;2023-08-12T14:47:58;26.29;67.71
13713;DHT22;6928;50.546;7.120;2023-08-12T14:50:24;26.09;68.52
13713;DHT22;6928;50.546;7.120;2023-08-12T14:52:53;26.04;68.51
13713;DHT22;6928;50.546;7.120;2023-08-12T14:55:19;26.19;69.19
13713;DHT22;6928;50.546;7.120;2023-08-12T14:57:46;26.36;68.26
13713;DHT22;6928;50.546;7.120;2023-08-12T15:00:14;26.26;68.19
13713;DHT22;6928;50.546;7.120;2023-08-12T15:02:40;26.25;68.22
13713;DHT22;6928;50.546;7.120;2023-08-12T15:05:08;26.28;68.27
13713;DHT22;6928;50.546;7.120;2023-08-12T15:07:35;26.04;69.11
13713;DHT22;6928;50.546;7.120;2023-08-12T15:10:07;26.02;70.34
13713;DHT22;6928;50.546;7.120;2023-08-12T15:12:34;25.41;73.71
13713;DHT22;6928;50.546;7.120;2023-08-12T15:15:12;24.72;75.68
13713;DHT22;6928;50.546;7.120;2023-08-12T15:17:39;24.65;76.72
13713;DHT22;6928;50.546;7.120;2023-08-12T15:20:09;24.65;76.63
13713;DHT22;6928;50.546;7.120;2023-08-12T15:25:18;24.25;77.84
13713;DHT22;6928;50.546;7.120;2023-08-12T15:27:45;23.82;80.50
13713;DHT22;6928;50.546;7.120;2023-08-12T15:30:12;22.97;82.82
13713;DHT22;6928;50.546;7.120;2023-08-12T15:32:38;23.01;83.20
13713;DHT22;6928;50.546;7.120;2023-08-12T15:35:05;22.80;84.82
13713;DHT22;6928;50.546;7.120;2023-08-12T15:37:32;22.95;85.62
13713;DHT22;6928;50.546;7.120;2023-08-12T15:39:59;22.84;86.38
13713;DHT22;6928;50.546;7.120;2023-08-12T15:42:27;22.59;86.11
13713;DHT22;6928;50.546;7.120;2023-08-12T15:44:54;22.57;86.28
13713;DHT22;6928;50.546;7.120;2023-08-12T15:47:21;22.86;85.80
13713;DHT22;6928;50.546;7.120;2023-08-12T15:49:47;22.86;86.06
13713;DHT22;6928;50.546;7.120;2023-08-12T15:52:14;22.77;86.36
13713;DHT22;6928;50.546;7.120;2023-08-12T15:54:41;22.56;86.76
13713;DHT22;6928;50.546;7.120;2023-08-12T15:57:07;22.46;86.13